Data for 07/14/2005

Time Sea-Level Adjusted Pressure Absolute Pressure Temperature Relative Humidity Dew Point   
(mb) (inHg) (mb) (inHg) (C) (F) (%) (C) (F)
00:05 1021 30.15 850 25.1 21.7 71 43 8.8 47.8
00:10 1021 30.15 851 25.13 21.6 70.9 43 8.8 47.8
00:15 1021 30.15 851 25.13 21.4 70.6 43 8.4 47.2
00:20 1021 30.15 851 25.13 21.4 70.5 43 8.4 47.1
00:25 1022 30.18 851 25.13 21.3 70.3 44 8.6 47.4
00:30 1022 30.18 851 25.13 21 69.9 44 8.5 47.2
00:35 1022 30.18 851 25.13 20.9 69.5 45 8.6 47.4
00:40 1022 30.18 851 25.13 20.6 69.1 44 8.2 46.8
00:45 1022 30.18 851 25.13 20.4 68.7 45 8.1 46.7
00:50 1022 30.18 851 25.13 20.3 68.6 44 7.7 45.8
00:55 1022 30.18 851 25.13 20.3 68.6 43 7.6 45.7
01:00 1022 30.18 851 25.13 20.2 68.4 43 7.5 45.5
01:05 1022 30.18 851 25.13 20.2 68.3 42 7 44.7
01:10 1022 30.18 851 25.13 20.1 68.2 42 7 44.7
01:15 1022 30.18 851 25.13 20.1 68.1 42 7.1 44.7
01:20 1022 30.18 851 25.13 19.9 67.9 45 7.7 45.8
01:25 1022 30.18 851 25.13 19.7 67.4 48 8.4 47.1
01:30 1022 30.18 851 25.13 19.3 66.8 47 8 46.4
01:35 1022 30.18 852 25.16 19.3 66.7 46 7.5 45.5
01:40 1022 30.18 852 25.16 19.1 66.3 47 7.6 45.7
01:45 1022 30.18 852 25.16 18.8 65.8 48 7.6 45.6
01:50 1022 30.18 852 25.16 18.6 65.6 47 7.2 45
01:55 1022 30.18 852 25.16 18.6 65.5 47 7.3 45.2
02:00 1022 30.18 852 25.16 18.5 65.3 47 7 44.5
02:05 1023 30.21 852 25.16 18.4 65.1 45 6.5 43.7
02:10 1023 30.21 852 25.16 18.1 64.6 47 6.6 43.9
02:15 1023 30.21 852 25.16 17.9 64.3 44 5.6 42.2
02:20 1023 30.21 852 25.16 18.1 64.6 43 5.4 41.7
02:25 1023 30.21 852 25.16 18.1 64.5 44 5.6 42
02:30 1023 30.21 852 25.16 17.9 64.3 43 5.2 41.4
02:35 1023 30.21 852 25.16 17.9 64.2 39 3.9 39
02:40 1023 30.21 852 25.16 18.2 64.7 38 3.7 38.7
02:45 1023 30.21 852 25.16 18.2 64.8 37 3.4 38.1
02:50 1023 30.21 852 25.16 18.2 64.8 36 2.9 37.3
02:55 1023 30.21 852 25.16 18.1 64.6 36 2.9 37.1
03:00 1023 30.21 853 25.19 18.1 64.7 35 2.7 36.8
03:05 1023 30.21 853 25.19 18.2 64.8 36 2.9 37.3
03:10 1023 30.21 853 25.19 18.2 64.7 35 2.7 36.9
03:15 1023 30.21 853 25.19 18.2 64.8 35 2.6 36.6
03:20 1023 30.21 853 25.19 18.3 64.9 38 3.7 38.7
03:25 1023 30.21 853 25.19 18.1 64.6 41 4.6 40.3
03:30 1023 30.21 853 25.19 17.7 63.8 45 5.7 42.3
03:35 1024 30.24 853 25.19 17.2 62.9 48 6.2 43.2
03:40 1024 30.24 853 25.19 16.8 62.3 50 6.4 43.5
03:45 1024 30.24 853 25.19 16.5 61.6 49 5.9 42.6
03:50 1024 30.24 853 25.19 16.2 61.2 53 6.8 44.3
03:55 1024 30.24 853 25.19 15.8 60.4 56 7.1 44.8
04:00 1024 30.24 853 25.19 15.1 59.2 57 6.8 44.2
04:05 1024 30.24 853 25.19 15.1 59.2 55 6.3 43.4
04:10 1024 30.24 853 25.19 15.2 59.4 55 6.2 43.1
04:15 1024 30.24 853 25.19 15.2 59.3 57 6.8 44.2
04:20 1024 30.24 853 25.19 14.8 58.7 58 6.6 44
04:25 1024 30.24 853 25.19 14.4 58 60 6.9 44.4
04:30 1024 30.24 853 25.19 14.3 57.7 55 5.6 42.1
04:35 1024 30.24 853 25.19 14.7 58.4 57 6.3 43.3
04:40 1024 30.24 853 25.19 14.3 57.7 59 6.3 43.4
04:45 1024 30.24 853 25.19 14.5 58 55 5.7 42.2
04:50 1024 30.24 853 25.19 14.5 58.1 52 5 40.9
04:55 1024 30.24 853 25.19 14.7 58.5 54 5.5 42
05:00 1024 30.24 853 25.19 14.6 58.4 55 5.7 42.3
05:05 1024 30.24 853 25.19 14.3 57.7 57 5.8 42.5
05:10 1024 30.24 853 25.19 14 57.2 56 5.5 41.9
05:15 1024 30.24 853 25.19 14 57.2 57 5.7 42.3
05:20 1024 30.24 854 25.22 13.7 56.7 57 5.5 41.9
05:25 1024 30.24 854 25.22 13.8 56.9 56 5.3 41.6
05:30 1024 30.24 854 25.22 13.7 56.7 58 5.7 42.2
05:35 1024 30.24 854 25.22 13.4 56.1 61 6 42.9
05:40 1024 30.24 854 25.22 13.4 56.1 57 5.2 41.3
05:45 1024 30.24 854 25.22 13.7 56.6 55 4.9 40.9
05:50 1024 30.24 854 25.22 13.7 56.7 56 5.3 41.5
05:55 1025 30.27 854 25.22 13.7 56.6 54 4.7 40.4
06:00 1025 30.27 854 25.22 13.9 57 55 5 41
06:05 1025 30.27 854 25.22 13.8 56.8 56 5.2 41.4
06:10 1025 30.27 854 25.22 13.5 56.3 56 5 40.9
06:15 1025 30.27 854 25.22 13.5 56.3 57 5.2 41.3
06:20 1025 30.27 854 25.22 13.6 56.5 58 5.5 42
06:25 1025 30.27 854 25.22 13.9 57.1 55 5.1 41.1
06:30 1025 30.27 854 25.22 14.1 57.4 54 5.1 41.2
06:35 1025 30.27 854 25.22 14.3 57.7 54 5.3 41.5
06:40 1025 30.27 854 25.22 14.4 57.9 54 5.4 41.7
06:45 1025 30.27 854 25.22 14.4 57.9 54 5.2 41.4
06:50 1025 30.27 854 25.22 14.2 57.5 57 5.9 42.7
06:55 1025 30.27 854 25.22 14.1 57.4 56 5.5 41.8
07:00 1025 30.27 854 25.22 14.2 57.5 56 5.5 41.9
07:05 1025 30.27 854 25.22 14.1 57.4 55 5.4 41.7
07:10 1025 30.27 854 25.22 14.5 58.1 55 5.6 42
07:15 1025 30.27 854 25.22 15 59 55 6 42.8
07:20 1025 30.27 854 25.22 15.4 59.7 58 7.2 44.9
07:25 1025 30.27 854 25.22 15.6 60.1 54 6.5 43.7
07:30 1025 30.27 854 25.22 15.6 60 56 7 44.5
07:35 1025 30.27 854 25.22 15.7 60.3 54 6.6 43.8
07:40 1025 30.27 854 25.22 16.5 61.7 53 7.1 44.8
07:45 1025 30.27 854 25.22 16.7 62.1 54 7.6 45.6
07:50 1025 30.27 854 25.22 16.9 62.4 51 6.7 44.1
07:55 1025 30.27 854 25.22 17.3 63.1 47 6.1 43
08:00 1025 30.27 854 25.22 18.3 64.9 39 4.2 39.5
08:05 1025 30.27 854 25.22 18.6 65.4 38 4 39.1
08:10 1025 30.27 854 25.22 18.4 65.2 35 2.7 36.9
08:15 1025 30.27 854 25.22 18.8 65.8 37 3.9 39.1
08:20 1025 30.27 854 25.22 19 66.2 38 4.3 39.8
08:25 1025 30.27 854 25.22 18.7 65.7 39 4.5 40.1
08:30 1025 30.27 854 25.22 18.9 65.9 40 5.1 41.2
08:35 1025 30.27 854 25.22 19.3 66.8 35 3.6 38.5
08:40 1025 30.27 854 25.22 19.5 67.1 32 2.7 36.8
08:45 1025 30.27 854 25.22 19.5 67 33 2.9 37.2
08:50 1025 30.27 854 25.22 19.7 67.4 31 2.4 36.2
08:55 1025 30.27 854 25.22 19.4 66.8 33 2.9 37.2
09:00 1025 30.27 854 25.22 19.7 67.4 31 2.2 35.9
09:05 1025 30.27 854 25.22 19.8 67.6 31 2.2 35.9
09:10 1025 30.27 854 25.22 19.6 67.2 33 2.9 37.1
09:15 1025 30.27 854 25.22 19.9 67.8 32 2.9 37.2
09:20 1025 30.27 854 25.22 20 68 32 2.9 37.2
09:25 1025 30.27 854 25.22 20.4 68.7 32 3.2 37.7
09:30 1025 30.27 854 25.22 20.6 69 31 2.9 37.3
09:35 1025 30.27 854 25.22 20.9 69.5 29 2.4 36.4
09:40 1025 30.27 854 25.22 20.9 69.5 30 2.7 36.9
09:45 1025 30.27 854 25.22 20.6 69 30 2.6 36.7
09:50 1025 30.27 854 25.22 20.6 69.1 30 2.6 36.7
09:55 1025 30.27 854 25.22 20.9 69.7 30 3 37.4
10:00 1025 30.27 854 25.22 21 69.9 32 3.8 38.9
10:05 1025 30.27 854 25.22 21.2 70.1 31 3.5 38.2
10:10 1025 30.27 854 25.22 21 69.8 29 2.7 36.8
10:15 1025 30.27 854 25.22 21.4 70.6 29 2.6 36.8
10:20 1025 30.27 854 25.22 21.9 71.4 26 1.8 35.3
10:25 1025 30.27 854 25.22 22.4 72.3 26 2.2 36
10:30 1024 30.24 854 25.22 22.2 72 27 2.3 36.2
10:35 1024 30.24 854 25.22 21.7 71.1 25 1.2 34.2
10:40 1024 30.24 854 25.22 22.1 71.8 25 1.2 34.2
10:45 1024 30.24 854 25.22 22.4 72.2 29 3.4 38.2
10:50 1024 30.24 854 25.22 22.3 72.1 26 2.1 35.8
10:55 1024 30.24 854 25.22 22.3 72.2 25 1.7 35
11:00 1024 30.24 853 25.19 22.4 72.2 26 2.3 36.2
11:05 1024 30.24 853 25.19 22.5 72.5 27 2.5 36.6
11:10 1024 30.24 853 25.19 22.9 73.3 28 3.6 38.5
11:15 1024 30.24 853 25.19 22.5 72.6 27 2.9 37.3
11:20 1024 30.24 853 25.19 22.6 72.7 28 3.6 38.5
11:25 1024 30.24 853 25.19 23.5 74.2 25 2.7 36.8
11:30 1024 30.24 853 25.19 24.1 75.3 24 2.4 36.4
11:35 1024 30.24 853 25.19 23.7 74.7 24 2.4 36.3
11:40 1024 30.24 853 25.19 23.4 74 25 2.3 36.2
11:45 1024 30.24 853 25.19 23.4 74 25 2.7 36.9
11:50 1024 30.24 853 25.19 24 75.1 24 2.2 35.9
11:55 1024 30.24 853 25.19 24 75.2 24 2.3 36.2
12:00 1024 30.24 853 25.19 24.5 76.1 23 2.4 36.4
12:05 1024 30.24 853 25.19 25 77 22 2.3 36.2
12:10 1024 30.24 853 25.19 24.5 76.1 22 1.7 35.1
12:15 1024 30.24 853 25.19 24.6 76.4 23 2.4 36.2
12:20 1024 30.24 853 25.19 24.9 76.8 22 2.3 36.1
12:25 1024 30.24 853 25.19 24.9 76.8 24 2.9 37.2
12:30 1024 30.24 853 25.19 25.3 77.5 23 3 37.4
12:35 1024 30.24 853 25.19 25.4 77.7 21 1.9 35.5
12:40 1023 30.21 853 25.19 25.8 78.4 23 3.1 37.6
12:45 1023 30.21 853 25.19 26.1 78.9 22 2.8 37.1
12:50 1023 30.21 853 25.19 25.5 77.9 21 2 35.6
12:55 1023 30.21 853 25.19 25.4 77.6 21 1.9 35.5
13:00 1023 30.21 853 25.19 25.7 78.2 21 2.2 36
13:05 1023 30.21 853 25.19 25.2 77.3 23 2.5 36.6
13:10 1023 30.21 853 25.19 24.3 75.8 23 1.8 35.3
13:15 1023 30.21 853 25.19 24.6 76.3 23 2.3 36.1
13:20 1023 30.21 853 25.19 25.8 78.4 24 3.9 39
13:25 1023 30.21 852 25.16 26.3 79.3 24 4.3 39.8
13:30 1023 30.21 852 25.16 26.5 79.6 22 3.6 38.5
13:35 1023 30.21 852 25.16 25.5 78 23 3.4 38.1
13:40 1023 30.21 852 25.16 25.9 78.7 22 3.2 37.7
13:45 1023 30.21 852 25.16 26.4 79.5 23 3.7 38.7
13:50 1023 30.21 852 25.16 26.4 79.5 22 3.1 37.6
13:55 1023 30.21 852 25.16 26.1 79 22 2.8 37.1
14:00 1023 30.21 852 25.16 26.5 79.7 21 2.7 36.9
14:05 1023 30.21 852 25.16 26.9 80.4 21 3 37.4
14:10 1023 30.21 852 25.16 26.6 79.9 23 3.9 39
14:15 1023 30.21 852 25.16 26.3 79.4 24 4.7 40.4
14:20 1023 30.21 852 25.16 26.4 79.6 22 3.4 38.1
14:25 1023 30.21 852 25.16 26.6 79.9 23 4 39.2
14:30 1023 30.21 852 25.16 26.7 80.1 22 3.8 38.9
14:35 1023 30.21 852 25.16 26.8 80.3 23 4.3 39.8
14:40 1023 30.21 852 25.16 27 80.7 24 4.9 40.8
14:45 1023 30.21 852 25.16 27.3 81.2 23 4.4 39.9
14:50 1023 30.21 852 25.16 27.2 81 24 5 40.9
14:55 1023 30.21 852 25.16 27.2 81 22 3.7 38.7
15:00 1023 30.21 852 25.16 27.3 81.1 22 3.9 39.1
15:05 1023 30.21 852 25.16 27.5 81.5 23 4.6 40.2
15:10 1023 30.21 852 25.16 27.4 81.4 22 3.8 38.9
15:15 1023 30.21 852 25.16 27.2 81 23 4.4 39.8
15:20 1023 30.21 852 25.16 27.1 80.8 23 4.5 40.1
15:25 1023 30.21 852 25.16 27.6 81.6 21 3.7 38.7
15:30 1023 30.21 852 25.16 27.9 82.2 21 4 39.2
15:35 1023 30.21 852 25.16 28 82.4 21 4.1 39.3
15:40 1023 30.21 852 25.16 27.9 82.2 20 3 37.4
15:45 1023 30.21 852 25.16 27.9 82.2 20 3.4 38
15:50 1023 30.21 852 25.16 28.1 82.6 21 3.7 38.7
15:55 1022 30.18 852 25.16 28.1 82.6 21 3.7 38.7
16:00 1022 30.18 852 25.16 28 82.4 22 4.3 39.8
16:05 1022 30.18 851 25.13 28.6 83.4 20 3.8 38.9
16:10 1022 30.18 851 25.13 28.4 83.1 21 4.4 39.9
16:15 1022 30.18 851 25.13 28.3 82.9 21 4.1 39.4
16:20 1022 30.18 851 25.13 28.3 83 21 4.2 39.5
16:25 1022 30.18 851 25.13 27.9 82.3 21 3.7 38.7
16:30 1022 30.18 851 25.13 28 82.4 19 2.4 36.2
16:35 1022 30.18 851 25.13 28.3 83 20 3.5 38.2
16:40 1022 30.18 851 25.13 28.5 83.2 20 3.7 38.7
16:45 1022 30.18 851 25.13 28.5 83.3 21 4.5 40.1
16:50 1022 30.18 851 25.13 28.7 83.6 19 3.3 38
16:55 1022 30.18 851 25.13 28.8 83.8 21 4.3 39.7
17:00 1022 30.18 851 25.13 28.9 83.9 21 4.5 40.1
17:05 1022 30.18 851 25.13 28.9 84 21 4.7 40.5
17:10 1022 30.18 851 25.13 28.5 83.3 22 5.2 41.4
17:15 1022 30.18 851 25.13 28.4 83 22 5.2 41.4
17:20 1022 30.18 851 25.13 28.9 84.1 20 4.3 39.8
17:25 1022 30.18 851 25.13 29.1 84.4 20 4.2 39.6
17:30 1022 30.18 851 25.13 29 84.2 21 4.6 40.3
17:35 1022 30.18 851 25.13 28.8 83.8 21 4.5 40.1
17:40 1022 30.18 851 25.13 29 84.3 21 4.5 40.1
17:45 1022 30.18 851 25.13 28.9 84 22 5.3 41.6
17:50 1022 30.18 851 25.13 29 84.2 21 4.5 40
17:55 1021 30.15 851 25.13 28.6 83.5 21 4.7 40.5
18:00 1021 30.15 851 25.13 28.3 82.9 21 4.4 39.9
18:05 1021 30.15 850 25.1 28.8 83.9 22 5.1 41.2
18:10 1021 30.15 850 25.1 28.5 83.3 21 4.5 40.2
18:15 1021 30.15 850 25.1 28.7 83.6 19 3.4 38.2
18:20 1021 30.15 850 25.1 29.1 84.4 20 3.9 39.1
18:25 1021 30.15 850 25.1 29.2 84.5 20 4.4 40
18:30 1021 30.15 850 25.1 28.9 84 21 4.6 40.2
18:35 1021 30.15 850 25.1 28.2 82.7 21 3.9 39
18:40 1021 30.15 850 25.1 27.8 82 21 3.6 38.4
18:45 1021 30.15 850 25.1 27.8 82.1 21 3.7 38.7
18:50 1021 30.15 850 25.1 27.8 82 21 3.8 38.8
18:55 1021 30.15 850 25.1 27.5 81.6 21 3.7 38.6
19:00 1021 30.15 850 25.1 27.3 81.1 21 3.5 38.2
19:05 1021 30.15 850 25.1 27.4 81.4 20 3 37.4
19:10 1021 30.15 850 25.1 27.6 81.7 21 3.6 38.5
19:15 1021 30.15 850 25.1 27.3 81.2 21 3.6 38.5
19:20 1021 30.15 850 25.1 27.5 81.5 19 2.3 36.1
19:25 1021 30.15 850 25.1 27.1 80.9 21 3.1 37.5
19:30 1021 30.15 850 25.1 27.1 80.7 21 3.1 37.6
19:35 1021 30.15 850 25.1 27.1 80.8 20 2.6 36.7
19:40 1021 30.15 850 25.1 27.1 80.7 19 1.7 35.1
19:45 1021 30.15 850 25.1 27 80.7 20 2.7 36.8
19:50 1021 30.15 850 25.1 27.2 81 20 2.3 36.2
19:55 1021 30.15 850 25.1 27.7 81.8 20 2.9 37.3
20:00 1021 30.15 850 25.1 28 82.4 20 3.3 38
20:05 1021 30.15 850 25.1 27.6 81.7 22 4.1 39.3
20:10 1021 30.15 850 25.1 27.1 80.8 26 6.2 43.2
20:15 1021 30.15 850 25.1 26.5 79.7 26 5.5 41.9
20:20 1021 30.15 850 25.1 26.1 78.9 26 5.4 41.8
20:25 1021 30.15 850 25.1 26 78.8 27 5.6 42.1
20:30 1021 30.15 850 25.1 25.8 78.4 29 6.4 43.6
20:35 1021 30.15 850 25.1 25.3 77.6 28 5.6 42.1
20:40 1021 30.15 850 25.1 25.1 77.2 29 6.3 43.3
20:45 1021 30.15 850 25.1 24.9 76.8 31 7 44.5
20:50 1021 30.15 850 25.1 24.5 76.1 31 6.7 44.1
20:55 1021 30.15 850 25.1 24.3 75.8 35 7.9 46.3
21:00 1021 30.15 850 25.1 24 75.2 38 9 48.1
21:05 1021 30.15 850 25.1 23.3 74 42 9.8 49.6
21:10 1021 30.15 850 25.1 22.8 73.1 43 9.9 49.9
21:15 1021 30.15 850 25.1 22.3 72.1 45 9.9 49.8
21:20 1021 30.15 850 25.1 21.7 71 44 9 48.2
21:25 1021 30.15 850 25.1 21.4 70.4 43 8.5 47.4
21:30 1021 30.15 850 25.1 20.8 69.4 47 9.1 48.3
21:35 1021 30.15 850 25.1 20.5 68.9 40 6.4 43.6
21:40 1021 30.15 850 25.1 20.7 69.2 46 8.9 48.1
21:45 1021 30.15 850 25.1 20.2 68.3 41 6.8 44.2
21:50 1021 30.15 850 25.1 20.1 68.2 44 7.6 45.6
21:55 1021 30.15 850 25.1 19.9 67.8 42 6.6 43.9
22:00 1021 30.15 850 25.1 19.5 67 42 6.3 43.3
22:05 1021 30.15 850 25.1 19.6 67.2 38 5 41
22:10 1021 30.15 850 25.1 19.8 67.7 38 5.3 41.6
22:15 1021 30.15 850 25.1 19.4 67 41 5.9 42.5
22:20 1021 30.15 850 25.1 19 66.1 43 6.1 43.1
22:25 1021 30.15 850 25.1 18.5 65.3 44 6 42.8
22:30 1021 30.15 850 25.1 18.4 65 45 6.5 43.6
22:35 1021 30.15 851 25.13 18.5 65.2 41 5 41
22:40 1021 30.15 851 25.13 18.7 65.7 39 4.6 40.3
22:45 1021 30.15 851 25.13 19.2 66.5 38 4.9 40.7
22:50 1021 30.15 851 25.13 18.9 66 40 5.3 41.5
22:55 1021 30.15 851 25.13 18.5 65.3 43 5.7 42.3
23:00 1021 30.15 851 25.13 18.3 65 43 5.7 42.3
23:05 1021 30.15 851 25.13 18.1 64.6 44 5.8 42.5
23:10 1021 30.15 851 25.13 17.7 63.9 45 5.7 42.3
23:15 1021 30.15 851 25.13 17.5 63.4 44 5.3 41.6
23:20 1021 30.15 851 25.13 17.8 64.1 42 5 41
23:25 1022 30.18 851 25.13 18.2 64.7 42 5.1 41.1
23:30 1022 30.18 851 25.13 18.1 64.5 43 5.3 41.6
23:35 1022 30.18 851 25.13 18.1 64.6 45 6.1 43.1
23:40 1022 30.18 851 25.13 18.3 64.9 43 5.6 42.1
23:45 1022 30.18 851 25.13 18.1 64.6 44 6 42.7
23:50 1022 30.18 851 25.13 18.1 64.5 43 5.4 41.6
23:55 1022 30.18 851 25.13 17.7 63.8 44 5.2 41.4
24:00 1022 30.18 851 25.13 17.7 63.8 45 5.7 42.3